FW5774 Weather Reports


Display with metric or nautical units.
time (UTC)temp
F
wind
direction
speed
MPH
gust
MPH
rain 1hr
in
rain 24hr
in
rain mn
in
humidity
%
barometer
mb
20220817005526 63 0 0.0 0.0 0.00 0.00 0.00 97 1011.1
20220817005004 62 0 0.0 0.0 0.00 0.00 0.00 96 1011.1
20220817004504 63 0 0.0 0.0 0.00 0.00 0.00 96 1011.0
20220817004025 64 0 0.0 0.0 0.00 0.00 0.00 96 1010.9
20220817003504 64 0 0.0 0.0 0.00 0.00 0.00 97 1011.0
20220817003004 64 0 0.0 0.0 0.00 0.00 0.00 96 1010.9
20220817002504 64 0 0.0 0.0 0.00 0.00 0.00 96 1010.9
20220817002025 64 0 0.0 0.0 0.00 0.00 0.00 97 1010.9
20220817001525 64 0 0.0 0.0 0.00 0.00 0.00 97 1010.9
20220817001025 64 0 0.0 0.0 0.00 0.00 0.00 97 1010.9
20220817000504 63 0 0.0 0.0 0.00 0.00 0.00 96 1011.0
20220817000004 63 0 0.0 0.0 0.00 0.00 0.00 96 1011.0
20220816235525 63 0 0.0 0.0 0.00 0.00 0.00 96 1011.0
20220816235025 64 0 0.0 0.0 0.00 0.00 0.00 96 1010.9
20220816234525 63 0 0.0 0.0 0.00 0.00 0.00 96 1011.0
20220816234004 64 0 0.0 0.0 0.00 0.00 0.00 96 1011.0
20220816233504 64 0 0.0 0.0 0.00 0.00 0.00 96 1011.0
20220816233004 64 0 0.0 0.0 0.00 0.00 0.00 96 1011.0
20220816232546 64 0 0.0 0.0 0.00 0.00 0.00 96 1011.0
20220816232025 64 0 0.0 0.0 0.00 0.00 0.00 96 1011.1
20220816231525 64 0 0.0 0.0 0.00 0.00 0.00 95 1011.2
20220816231025 65 0 0.0 0.0 0.00 0.00 0.00 95 1011.2
20220816230504 65 0 0.0 0.0 0.00 0.00 0.00 96 1011.3
20220816230046 65 0 0.0 0.0 0.00 0.00 0.00 96 1011.3
20220816225504 65 0 0.0 0.0 0.00 0.00 0.00 96 1011.4
20220816225004 65 0 0.0 0.0 0.00 0.00 0.00 96 1011.5
20220816224504 64 0 0.0 0.0 0.00 0.00 0.00 96 1011.4
20220816224025 64 0 0.0 0.0 0.00 0.00 0.00 96 1011.6
20220816223504 64 0 0.0 0.0 0.00 0.00 0.00 96 1011.6
20220816223004 64 0 0.0 0.0 0.00 0.00 0.00 95 1011.5
20220816222525 64 0 0.0 0.0 0.00 0.00 0.00 95 1011.4
20220816222046 65 0 0.0 0.0 0.00 0.00 0.00 95 1011.5
20220816221525 65 0 0.0 0.0 0.00 0.00 0.00 95 1011.5
20220816221004 65 0 0.0 0.0 0.00 0.00 0.00 95 1011.5
20220816220504 65 0 0.0 0.0 0.00 0.00 0.00 94 1011.4
20220816220027 66 0 0.0 0.0 0.00 0.00 0.00 94 1011.5
20220816215524 66 0 0.0 0.0 0.00 0.00 0.00 95 1011.5
20220816215025 66 0 0.0 0.0 0.00 0.00 0.00 95 1011.6
20220816214546 66 0 0.0 0.0 0.00 0.00 0.00 95 1011.6
20220816214004 66 226 1.0 3.0 0.00 0.00 0.00 95 1011.6
20220816213504 66 226 2.0 3.0 0.00 0.00 0.00 95 1011.6
20220816213046 65 226 2.0 3.0 0.00 0.00 0.00 93 1011.6
20220816212524 66 227 1.0 2.0 0.00 0.00 0.00 93 1011.6
20220816212004 67 226 1.0 2.0 0.00 0.00 0.00 94 1011.6
20220816211504 67 226 1.0 2.0 0.00 0.00 0.00 94 1011.5
20220816211004 67 225 1.0 3.0 0.00 0.00 0.00 93 1011.6
20220816210504 67 225 2.0 3.0 0.00 0.00 0.00 93 1011.5
20220816210046 67 223 2.0 3.0 0.00 0.00 0.00 93 1011.5
20220816205525 68 221 1.0 3.0 0.00 0.00 0.00 93 1011.4
20220816205004 68 220 0.0 1.0 0.00 0.00 0.00 93 1011.4
20220816204504 68 220 1.0 2.0 0.00 0.00 0.00 93 1011.4
20220816204025 68 198 2.0 3.0 0.00 0.00 0.00 93 1011.4
20220816203503 68 172 1.0 3.0 0.00 0.00 0.00 93 1011.2
20220816203024 68 153 0.0 1.0 0.00 0.00 0.00 93 1011.3
20220816202503 68 153 0.0 1.0 0.00 0.00 0.00 93 1011.2
20220816202003 67 160 1.0 2.0 0.00 0.00 0.00 93 1011.2
20220816201503 67 205 1.0 2.0 0.00 0.00 0.00 92 1011.2
20220816201003 67 237 1.0 3.0 0.00 0.00 0.00 91 1011.0
20220816200504 68 228 3.0 4.0 0.00 0.00 0.00 90 1011.1
20220816200025 68 226 2.0 4.0 0.00 0.00 0.00 88 1011.0
20220816195503 70 237 0.0 4.0 0.00 0.00 0.00 84 1011.0
20220816195003 72 0 0.0 0.0 0.00 0.00 0.00 85 1010.9
20220816194504 72 0 0.0 0.0 0.00 0.00 0.00 86 1011.0
20220816194004 71 0 0.0 0.0 0.00 0.00 0.00 87 1010.9
20220816193504 71 210 0.0 1.0 0.00 0.00 0.00 89 1010.8
20220816193046 70 210 1.0 3.0 0.00 0.00 0.00 90 1010.8
20220816192503 69 210 1.0 3.0 0.00 0.00 0.00 91 1010.8
20220816192025 70 210 0.0 3.0 0.00 0.00 0.00 91 1010.8
20220816191504 70 210 0.0 2.0 0.00 0.00 0.00 90 1010.8
20220816191025 70 210 0.0 2.0 0.00 0.00 0.00 90 1010.8
20220816190524 70 210 1.0 2.0 0.00 0.00 0.00 90 1010.8
20220816190003 70 213 1.0 3.0 0.00 0.00 0.00 89 1010.7
20220816185524 71 214 1.0 3.0 0.00 0.00 0.00 87 1010.7
20220816185045 71 0 0.0 0.0 0.00 0.00 0.00 88 1010.6
20220816184504 71 215 0.0 1.0 0.00 0.00 0.00 88 1010.5
20220816184025 71 215 1.0 2.0 0.00 0.00 0.00 88 1010.5
20220816183504 71 214 2.0 3.0 0.00 0.00 0.00 87 1010.4
20220816183025 71 219 1.0 3.0 0.00 0.00 0.00 85 1010.4
20220816182525 73 242 0.0 3.0 0.00 0.00 0.00 80 1010.3
20220816182004 76 343 0.0 1.0 0.00 0.00 0.00 76 1010.4
20220816181504 76 319 0.0 2.0 0.00 0.00 0.00 77 1010.5
20220816181025 76 261 0.0 2.0 0.00 0.00 0.00 77 1010.3
20220816180545 75 214 0.0 1.0 0.00 0.00 0.00 79 1010.4
20220816180003 74 214 1.0 2.0 0.00 0.00 0.00 81 1010.4
20220816175525 74 214 1.0 2.0 0.00 0.00 0.00 82 1010.4
20220816175025 73 214 0.0 2.0 0.00 0.00 0.00 83 1010.3
20220816174504 73 214 0.0 1.0 0.00 0.00 0.00 83 1010.3
20220816174024 73 213 1.0 4.0 0.00 0.00 0.00 82 1010.3
20220816173503 74 212 1.0 4.0 0.00 0.00 0.00 81 1010.0
20220816173046 75 211 0.0 4.0 0.00 0.00 0.00 77 1009.9
20220816172504 79 0 0.0 0.0 0.00 0.00 0.00 70 1010.0
20220816172025 79 0 0.0 0.0 0.00 0.00 0.00 70 1010.0
20220816171504 77 0 0.0 0.0 0.00 0.00 0.00 72 1010.0
20220816171003 77 209 1.0 3.0 0.00 0.00 0.00 72 1010.1
20220816170545 77 191 1.0 4.0 0.00 0.00 0.00 74 1010.0
20220816170046 77 174 1.0 4.0 0.00 0.00 0.00 75 1010.0
20220816165504 79 174 1.0 3.0 0.00 0.00 0.00 67 1009.9
20220816165025 78 163 1.0 4.0 0.00 0.00 0.00 69 1009.9
20220816164504 78 100 1.0 6.0 0.00 0.00 0.00 74 1009.8
20220816164003 81 57 1.0 6.0 0.00 0.00 0.00 64 1009.8
20220816163503 81 31 1.0 3.0 0.00 0.00 0.00 59 1009.8
20220816163024 81 53 1.0 3.0 0.00 0.00 0.00 59 1009.7
20220816162546 81 60 1.0 3.0 0.00 0.00 0.00 57 1009.7
20220816162025 81 311 1.0 4.0 0.00 0.00 0.00 57 1009.7
20220816161504 81 296 1.0 4.0 0.00 0.00 0.00 56 1009.8
20220816161004 82 16 1.0 3.0 0.00 0.00 0.00 57 1009.8
20220816160503 82 56 1.0 6.0 0.00 0.00 0.00 57 1009.8
20220816160003 82 69 2.0 6.0 0.00 0.00 0.00 55 1009.8
20220816155524 82 55 2.0 6.0 0.00 0.00 0.00 55 1009.8
20220816155003 83 334 2.0 7.0 0.00 0.00 0.00 56 1009.9
20220816154503 83 53 2.0 7.0 0.00 0.00 0.00 51 1009.8
20220816154024 83 71 2.0 7.0 0.00 0.00 0.00 55 1009.4
20220816153503 83 51 2.0 5.0 0.00 0.00 0.00 56 1009.3
20220816153003 83 62 2.0 5.0 0.00 0.00 0.00 57 1009.4
20220816152545 83 28 2.0 5.0 0.00 0.00 0.00 55 1009.3
20220816152003 84 350 2.0 5.0 0.00 0.00 0.00 53 1009.4
20220816151503 84 72 3.0 7.0 0.00 0.00 0.00 54 1009.5
20220816151024 83 72 4.0 8.0 0.00 0.00 0.00 57 1009.5
20220816150504 83 65 4.0 9.0 0.00 0.00 0.00 54 1009.5
20220816150003 83 66 4.0 10.0 0.00 0.00 0.00 58 1009.4
20220816145546 83 68 4.0 10.0 0.00 0.00 0.00 58 1009.4
20220816145004 83 55 3.0 8.0 0.00 0.00 0.00 61 1009.4
20220816144504 83 41 3.0 8.0 0.00 0.00 0.00 59 1009.4
20220816144046 83 29 3.0 7.0 0.00 0.00 0.00 60 1009.4
20220816143525 83 20 2.0 7.0 0.00 0.00 0.00 60 1009.3
20220816143045 83 38 2.0 7.0 0.00 0.00 0.00 60 1009.2
20220816142545 83 46 2.0 6.0 0.00 0.00 0.00 61 1009.3
20220816142045 83 30 3.0 6.0 0.00 0.00 0.00 61 1009.4
20220816141505 83 42 3.0 8.0 0.00 0.00 0.00 63 1009.4
20220816141047 82 51 3.0 8.0 0.00 0.00 0.00 62 1009.4
20220816140505 83 49 3.0 8.0 0.00 0.00 0.00 62 1009.4
20220816140047 83 56 4.0 9.0 0.00 0.00 0.00 63 1009.4
20220816135547 83 70 4.0 10.0 0.00 0.00 0.00 62 1009.5
20220816135026 83 75 4.0 10.0 0.00 0.00 0.00 64 1009.4
20220816134505 83 62 3.0 8.0 0.00 0.00 0.00 62 1009.4
20220816134005 83 39 3.0 7.0 0.00 0.00 0.00 61 1009.4
20220816133526 82 59 4.0 9.0 0.00 0.00 0.00 61 1009.2
20220816133047 83 77 6.0 14.0 0.00 0.00 0.00 61 1009.4
20220816132547 83 75 5.0 14.0 0.00 0.00 0.00 59 1009.4
20220816132005 82 55 3.0 8.0 0.00 0.00 0.00 62 1009.3
20220816131526 81 63 2.0 7.0 0.00 0.00 0.00 62 1009.4
20220816131047 80 70 2.0 6.0 0.00 0.00 0.00 64 1009.4
20220816130527 81 44 1.0 4.0 0.00 0.00 0.00 62 1009.4
20220816130005 81 8 2.0 6.0 0.00 0.00 0.00 61 1009.4
20220816125506 82 348 2.0 7.0 0.00 0.00 0.00 63 1009.5
20220816125025 81 1 1.0 7.0 0.00 0.00 0.00 59 1009.5
20220816124525 81 68 2.0 6.0 0.00 0.00 0.00 59 1009.3
20220816124026 81 69 3.0 8.0 0.00 0.00 0.00 61 1009.3
20220816123526 82 71 4.0 9.0 0.00 0.00 0.00 57 1009.2
20220816123005 82 69 4.0 9.0 0.00 0.00 0.00 57 1009.2
20220816122526 82 73 3.0 9.0 0.00 0.00 0.00 58 1009.2
20220816122047 82 94 3.0 8.0 0.00 0.00 0.00 60 1009.3
20220816121505 83 80 3.0 6.0 0.00 0.00 0.00 57 1009.2
20220816121026 83 72 4.0 9.0 0.00 0.00 0.00 56 1009.2
20220816120505 84 74 6.0 13.0 0.00 0.00 0.00 60 1009.4
20220816120047 84 73 5.0 13.0 0.00 0.00 0.00 58 1009.3
20220816115547 85 85 5.0 9.0 0.00 0.00 0.00 57 1009.2
20220816115026 85 212 5.0 9.0 0.00 0.00 0.00 54 1009.0
20220816114526 85 234 5.0 8.0 0.00 0.00 0.00 56 1008.9
20220816114004 85 243 4.0 8.0 0.00 0.00 0.00 59 1009.0
20220816113526 85 247 3.0 8.0 0.00 0.00 0.00 54 1009.2
20220816113026 84 257 5.0 12.0 0.00 0.00 0.00 59 1009.3
20220816112505 85 271 5.0 12.0 0.00 0.00 0.00 53 1009.4
20220816112005 85 252 3.0 8.0 0.00 0.00 0.00 55 1009.4
20220816111505 84 229 3.0 7.0 0.00 0.00 0.00 58 1009.4
20220816111026 84 220 4.0 7.0 0.00 0.00 0.00 58 1009.4
20220816110505 83 216 4.0 8.0 0.00 0.00 0.00 57 1009.4
20220816110026 84 223 5.0 8.0 0.00 0.00 0.00 58 1009.3
20220816105526 83 233 4.0 7.0 0.00 0.00 0.00 58 1009.3
20220816105006 83 237 4.0 8.0 0.00 0.00 0.00 56 1009.4
20220816104526 83 238 4.0 8.0 0.00 0.00 0.00 58 1009.6
20220816104026 83 250 4.0 7.0 0.00 0.00 0.00 61 1009.5
20220816103526 83 247 4.0 8.0 0.00 0.00 0.00 58 1009.6
20220816103005 83 230 4.0 8.0 0.00 0.00 0.00 59 1009.7
20220816102505 83 241 3.0 6.0 0.00 0.00 0.00 61 1009.7
20220816102004 83 268 2.0 5.0 0.00 0.00 0.00 61 1009.7
20220816101547 82 278 3.0 7.0 0.00 0.00 0.00 60 1009.6
20220816101005 83 263 4.0 8.0 0.00 0.00 0.00 59 1009.6
20220816100526 83 247 2.0 8.0 0.00 0.00 0.00 59 1009.6
20220816100026 82 266 2.0 7.0 0.00 0.00 0.00 69 1009.5
20220816095505 82 292 3.0 7.0 0.00 0.00 0.00 61 1009.6
20220816095026 82 264 3.0 7.0 0.00 0.00 0.00 62 1009.5
20220816094547 81 216 3.0 6.0 0.00 0.00 0.00 63 1009.5
20220816094026 80 236 4.0 9.0 0.00 0.00 0.00 68 1009.6
20220816093547 81 250 4.0 9.0 0.00 0.00 0.00 69 1009.6
20220816093047 80 239 4.0 7.0 0.00 0.00 0.00 66 1009.6
20220816092505 80 249 5.0 9.0 0.00 0.00 0.00 68 1009.6
20220816092047 80 261 4.0 9.0 0.00 0.00 0.00 66 1009.6
20220816091526 80 258 4.0 9.0 0.00 0.00 0.00 67 1009.6
20220816091026 80 260 4.0 9.0 0.00 0.00 0.00 68 1009.5
20220816090505 79 263 3.0 8.0 0.00 0.00 0.00 67 1009.6
20220816090047 79 242 2.0 8.0 0.00 0.00 0.00 68 1009.5
20220816085504 79 288 3.0 8.0 0.00 0.00 0.00 68 1009.6
20220816085004 79 280 4.0 9.0 0.00 0.00 0.00 66 1009.6
20220816084504 78 229 4.0 9.0 0.00 0.00 0.00 69 1009.5
20220816084004 78 222 3.0 5.0 0.00 0.00 0.00 73 1009.4
20220816083504 78 241 5.0 10.0 0.00 0.00 0.00 74 1009.4
20220816083047 78 242 6.0 10.0 0.00 0.00 0.00 72 1009.5
20220816082505 78 236 6.0 10.0 0.00 0.00 0.00 73 1009.5
20220816082005 77 235 5.0 9.0 0.00 0.00 0.00 74 1009.5
20220816081505 77 234 5.0 8.0 0.00 0.00 0.00 76 1009.5
20220816081026 77 230 4.0 8.0 0.00 0.00 0.00 74 1009.5
20220816080504 77 239 4.0 11.0 0.00 0.00 0.00 76 1009.5
20220816080026 77 238 4.0 11.0 0.00 0.00 0.00 74 1009.5
20220816075547 77 220 3.0 6.0 0.00 0.00 0.00 77 1009.5
20220816075005 76 224 3.0 4.0 0.00 0.00 0.00 79 1009.5
20220816074505 76 253 2.0 4.0 0.00 0.00 0.00 74 1009.4
20220816074004 76 250 2.0 4.0 0.00 0.00 0.00 75 1009.4
20220816073525 75 226 3.0 6.0 0.00 0.00 0.00 77 1009.4
20220816073025 75 241 3.0 7.0 0.00 0.00 0.00 79 1009.4
20220816072504 74 245 4.0 7.0 0.00 0.00 0.00 77 1009.4
20220816072004 74 241 4.0 7.0 0.00 0.00 0.00 78 1009.5
20220816071504 74 247 4.0 7.0 0.00 0.00 0.00 80 1009.4
20220816071025 74 250 3.0 7.0 0.00 0.00 0.00 78 1009.6
20220816070504 73 215 2.0 4.0 0.00 0.00 0.00 80 1009.5
20220816070005 72 188 1.0 3.0 0.00 0.00 0.00 82 1009.5
20220816065504 72 209 1.0 3.0 0.00 0.00 0.00 82 1009.5
20220816065026 72 220 1.0 3.0 0.00 0.00 0.00 84 1009.5
20220816064505 71 199 1.0 2.0 0.00 0.00 0.00 83 1009.4
20220816064026 71 193 1.0 3.0 0.00 0.00 0.00 84 1009.4
20220816063546 70 199 2.0 4.0 0.00 0.00 0.00 84 1009.4
20220816063025 70 211 2.0 5.0 0.00 0.00 0.00 85 1009.5
20220816062525 70 236 3.0 7.0 0.00 0.00 0.00 87 1009.4
20220816062025 70 251 3.0 8.0 0.00 0.00 0.00 87 1009.4
20220816061526 69 244 3.0 8.0 0.00 0.00 0.00 87 1009.4
20220816061026 69 233 3.0 5.0 0.00 0.00 0.00 88 1009.4
20220816060505 69 225 2.0 4.0 0.00 0.00 0.00 91 1009.4
20220816060005 68 225 2.0 4.0 0.00 0.00 0.00 90 1009.3
20220816055546 68 225 0.0 4.0 0.00 0.00 0.00 91 1009.3
20220816055004 68 0 0.0 0.0 0.00 0.00 0.00 93 1009.2
20220816054526 67 0 0.0 0.0 0.00 0.00 0.00 93 1009.2
20220816054026 67 0 0.0 0.0 0.00 0.00 0.00 94 1009.4
20220816053505 66 0 0.0 0.0 0.00 0.00 0.00 96 1009.2
20220816053005 66 0 0.0 0.0 0.00 0.00 0.00 97 1009.3
20220816052525 65 0 0.0 0.0 0.00 0.00 0.00 97 1009.0
20220816052004 64 0 0.0 0.0 0.00 0.00 0.00 97 1009.0
20220816051504 64 0 0.0 0.0 0.00 0.00 0.00 97 1009.0
20220816051025 63 0 0.0 0.0 0.00 0.00 0.00 97 1009.0
20220816050505 62 0 0.0 0.0 0.00 0.00 0.00 97 1008.9
20220816050004 62 0 0.0 0.0 0.00 0.00 0.00 97 1008.9
20220816045504 62 0 0.0 0.0 0.00 0.00 0.00 97 1008.9
20220816045025 61 0 0.0 0.0 0.00 0.00 0.00 97 1008.9
20220816044504 61 0 0.0 0.0 0.00 0.00 0.00 97 1008.6
20220816044025 60 0 0.0 0.0 0.00 0.00 0.00 97 1008.6
20220816043525 60 0 0.0 0.0 0.00 0.00 0.00 97 1008.8
20220816043047 59 0 0.0 0.0 0.00 0.00 0.00 97 1008.7
20220816042505 58 0 0.0 0.0 0.00 0.00 0.00 97 1008.7
20220816042005 59 0 0.0 0.0 0.00 0.00 0.00 96 1008.7
20220816041525 59 0 0.0 0.0 0.00 0.00 0.00 96 1008.7
20220816041004 60 0 0.0 0.0 0.00 0.00 0.00 97 1008.6
20220816040525 60 0 0.0 0.0 0.00 0.00 0.00 97 1008.6
20220816040004 60 0 0.0 0.0 0.00 0.00 0.00 97 1008.5
20220816035504 60 0 0.0 0.0 0.00 0.00 0.00 97 1008.6
20220816035046 60 0 0.0 0.0 0.00 0.00 0.00 97 1008.6
20220816034504 59 0 0.0 0.0 0.00 0.00 0.00 97 1008.4
20220816034047 59 0 0.0 0.0 0.00 0.00 0.00 97 1008.5
20220816033505 60 0 0.0 0.0 0.00 0.00 0.00 97 1008.5
20220816033025 60 0 0.0 0.0 0.00 0.00 0.00 97 1008.5
20220816032525 60 0 0.0 0.0 0.00 0.00 0.00 97 1008.4
20220816032004 60 0 0.0 0.0 0.00 0.00 0.00 97 1008.4
20220816031504 60 0 0.0 0.0 0.00 0.00 0.00 97 1008.3
20220816031026 60 0 0.0 0.0 0.00 0.00 0.00 97 1008.5
20220816030505 60 0 0.0 0.0 0.00 0.00 0.00 97 1008.5
20220816030004 60 0 0.0 0.0 0.00 0.00 0.00 97 1008.5
20220816025504 60 0 0.0 0.0 0.00 0.00 0.00 97 1008.6
20220816025004 60 0 0.0 0.0 0.00 0.00 0.00 97 1008.6
20220816024504 59 242 0.0 2.0 0.00 0.00 0.00 96 1008.6
20220816024025 60 242 0.0 2.0 0.00 0.00 0.00 96 1008.5
20220816023546 60 241 1.0 3.0 0.00 0.00 0.00 97 1008.4
20220816023004 60 239 2.0 3.0 0.00 0.00 0.00 96 1008.4
20220816022504 60 235 2.0 3.0 0.00 0.00 0.00 96 1008.5
20220816022026 59 234 2.0 4.0 0.00 0.00 0.00 96 1008.4
20220816021526 59 235 2.0 4.0 0.00 0.00 0.00 95 1008.4
20220816021004 60 236 1.0 2.0 0.00 0.00 0.00 96 1008.4
20220816020525 60 236 1.0 2.0 0.00 0.00 0.00 96 1008.5
20220816020025 60 0 0.0 0.0 0.00 0.00 0.00 96 1008.5
20220816015504 60 236 1.0 2.0 0.00 0.00 0.00 96 1008.4
20220816015025 60 236 1.0 3.0 0.00 0.00 0.00 96 1008.4
20220816014526 60 236 2.0 4.0 0.00 0.00 0.00 95 1008.4
20220816014005 60 236 1.0 4.0 0.00 0.00 0.00 95 1008.4
20220816013525 62 0 0.0 0.0 0.00 0.00 0.00 96 1008.4
20220816013025 62 0 0.0 0.0 0.00 0.00 0.00 96 1008.4
20220816012527 61 0 0.0 0.0 0.00 0.00 0.00 96 1008.4
20220816012004 61 0 0.0 0.0 0.00 0.00 0.00 96 1008.5
20220816011546 61 0 0.0 0.0 0.00 0.00 0.00 96 1008.3
20220816011004 60 0 0.0 0.0 0.00 0.00 0.00 96 1008.3
20220816010526 60 0 0.0 0.0 0.00 0.00 0.00 95 1008.3
20220816010004 60 0 0.0 0.0 0.00 0.00 0.00 94 1008.2